Terminal Aerodrome Forecast
Issued by NWS

Home | Current Version | Previous Version | Text Only | Print | Product List | Glossary On
Versions: 1 2 3 4 5 6 7 8 9 10 11 12 13 14
000
FTUS43 KBIS 240300 AAA
TAFMOT
TAF AMD
KMOT 240318Z 2403/2424 15010KT P6SM SKC
     FM240800 20006KT P6SM VCFG SCT008
      TEMPO 2410/2413 2SM BR BKN008
     FM241300 23006KT P6SM FEW250=

USA.gov is the U.S. government's official web portal to all federal, state and local government web resources and services.